Time;durP1;ratioP1;P1;durP2;ratioP2;P2;SDS_P1;SDS_P2;PMS_P1;PMS_P2;Temp;Humidity;BMP_temperature;BMP_pressure;BME280_temperature;BME280_humidity;BME280_pressure;Samples;Min_cycle;Max_cycle;Signal;HPM_P1;HPM_P2
2022/06/19 00:02:06;;;;;;;;;;;13.80;99.90;;;;;;5026586;28;19974;-77
2022/06/19 00:04:32;;;;;;;;;;;13.70;99.90;;;;;;5034030;28;19925;-77
2022/06/19 00:06:58;;;;;;;;;;;13.70;99.90;;;;;;5034809;28;19987;-77
2022/06/19 00:09:25;;;;;;;;;;;13.70;99.90;;;;;;5034445;28;19920;-77
2022/06/19 00:11:52;;;;;;;;;;;13.70;99.90;;;;;;5034355;28;20370;-77
2022/06/19 00:14:17;;;;;;;;;;;13.70;99.90;;;;;;5034355;28;19917;-77
2022/06/19 00:16:43;;;;;;;;;;;13.70;99.90;;;;;;5034205;28;20297;-77
2022/06/19 00:19:08;;;;;;;;;;;13.70;99.90;;;;;;5022061;28;19917;-77
2022/06/19 00:21:34;;;;;;;;;;;13.70;99.90;;;;;;5018043;28;20292;-78
2022/06/19 00:24:00;;;;;;;;;;;13.70;99.90;;;;;;5034620;28;20393;-77
2022/06/19 00:26:25;;;;;;;;;;;13.70;99.90;;;;;;5005364;28;19963;-78
2022/06/19 00:28:51;;;;;;;;;;;13.70;99.90;;;;;;5033757;28;19920;-77
2022/06/19 00:31:16;;;;;;;;;;;13.70;99.90;;;;;;5034222;28;19956;-77
2022/06/19 00:33:42;;;;;;;;;;;13.70;99.90;;;;;;5032414;28;19967;-78
2022/06/19 00:36:08;;;;;;;;;;;13.70;99.90;;;;;;5052522;28;19927;-77
2022/06/19 00:38:33;;;;;;;;;;;13.70;99.90;;;;;;5004444;28;20427;-77
2022/06/19 00:41:00;;;;;;;;;;;13.70;99.90;;;;;;5033837;28;19917;-77
2022/06/19 00:43:26;;;;;;;;;;;13.70;99.90;;;;;;5032555;28;19921;-77
2022/06/19 00:45:52;;;;;;;;;;;13.70;99.90;;;;;;5016138;28;19924;-77
2022/06/19 00:48:21;;;;;;;;;;;13.70;99.90;;;;;;5030188;28;19931;-77
2022/06/19 00:50:47;;;;;;;;;;;13.80;99.90;;;;;;5012537;28;19949;-77
2022/06/19 00:53:15;;;;;;;;;;;13.80;99.90;;;;;;5020402;28;19916;-77
2022/06/19 00:55:42;;;;;;;;;;;13.80;99.90;;;;;;5033692;28;19924;-77
2022/06/19 00:58:14;;;;;;;;;;;13.90;99.90;;;;;;5027307;28;20405;-77
2022/06/19 01:00:40;;;;;;;;;;;14.00;99.90;;;;;;5046760;28;19924;-77
2022/06/19 01:03:11;;;;;;;;;;;14.00;99.90;;;;;;5064332;28;19920;-78
2022/06/19 01:05:38;;;;;;;;;;;14.10;99.90;;;;;;5025231;28;19921;-77
2022/06/19 01:08:04;;;;;;;;;;;14.10;99.90;;;;;;5009526;28;20386;-78
2022/06/19 01:10:31;;;;;;;;;;;14.20;99.90;;;;;;5047290;28;19917;-77
2022/06/19 01:12:57;;;;;;;;;;;14.20;99.90;;;;;;5046877;28;19921;-77
2022/06/19 01:15:24;;;;;;;;;;;14.20;99.90;;;;;;5053523;28;20018;-77
2022/06/19 01:17:52;;;;;;;;;;;14.20;99.90;;;;;;5033104;28;20269;-76
2022/06/19 01:20:17;;;;;;;;;;;14.20;99.90;;;;;;5034025;28;20247;-78
2022/06/19 01:22:54;;;;;;;;;;;14.30;99.90;;;;;;5033507;28;19917;-77
2022/06/19 01:25:22;;;;;;;;;;;14.30;99.90;;;;;;5032797;28;19967;-77
2022/06/19 01:30:46;;;;;;;;;;;14.30;99.90;;;;;;4966305;28;20062;-77
2022/06/19 01:33:14;;;;;;;;;;;14.30;99.90;;;;;;5062558;28;19928;-77
2022/06/19 01:35:41;;;;;;;;;;;14.30;99.90;;;;;;5063079;28;19967;-77
2022/06/19 01:38:12;;;;;;;;;;;14.30;99.90;;;;;;5038089;28;20244;-77
2022/06/19 01:40:39;;;;;;;;;;;14.40;99.90;;;;;;5015322;28;19918;-77
2022/06/19 01:43:05;;;;;;;;;;;14.40;99.90;;;;;;5024815;28;20003;-78
2022/06/19 01:45:31;;;;;;;;;;;14.20;99.90;;;;;;5037247;28;19920;-78
2022/06/19 01:47:57;;;;;;;;;;;14.00;99.90;;;;;;5065768;28;19963;-78
2022/06/19 01:50:25;;;;;;;;;;;13.90;99.90;;;;;;5021687;28;19960;-78
2022/06/19 01:52:52;;;;;;;;;;;13.70;99.90;;;;;;5018685;28;19917;-77
2022/06/19 01:55:19;;;;;;;;;;;13.70;99.90;;;;;;5029718;28;19944;-77
2022/06/19 01:57:47;;;;;;;;;;;13.70;99.90;;;;;;5017765;28;19921;-77
2022/06/19 02:00:16;;;;;;;;;;;13.60;99.90;;;;;;5037470;28;19917;-78
2022/06/19 02:02:43;;;;;;;;;;;13.70;99.90;;;;;;5023217;28;20378;-77
2022/06/19 02:05:09;;;;;;;;;;;13.60;99.90;;;;;;5017098;28;19956;-77
2022/06/19 02:07:34;;;;;;;;;;;13.60;99.90;;;;;;5038200;28;19967;-78
2022/06/19 02:10:00;;;;;;;;;;;13.60;99.90;;;;;;5048805;28;19917;-78
2022/06/19 02:12:28;;;;;;;;;;;13.60;99.90;;;;;;5050362;28;19917;-78
2022/06/19 02:14:54;;;;;;;;;;;13.60;99.90;;;;;;5049717;28;20015;-78
2022/06/19 02:17:22;;;;;;;;;;;13.50;99.90;;;;;;5058522;28;20015;-78
2022/06/19 02:19:47;;;;;;;;;;;13.50;99.90;;;;;;5069288;28;19938;-78
2022/06/19 02:22:14;;;;;;;;;;;13.50;99.90;;;;;;5053346;28;20408;-78
2022/06/19 02:24:40;;;;;;;;;;;13.50;99.90;;;;;;5051813;28;19924;-78
2022/06/19 02:27:05;;;;;;;;;;;13.50;99.90;;;;;;5042604;28;19921;-78
2022/06/19 02:29:31;;;;;;;;;;;13.50;99.90;;;;;;5023982;28;19936;-78
2022/06/19 02:31:57;;;;;;;;;;;13.50;99.90;;;;;;5015077;28;19916;-78
2022/06/19 02:34:25;;;;;;;;;;;13.40;99.90;;;;;;5027425;28;20420;-77
2022/06/19 02:36:54;;;;;;;;;;;13.40;99.90;;;;;;5018572;28;20278;-77
2022/06/19 02:39:26;;;;;;;;;;;13.40;99.90;;;;;;5020079;28;19916;-78
2022/06/19 02:42:15;;;;;;;;;;;13.40;99.90;;;;;;5021243;28;20529;-77
2022/06/19 02:44:41;;;;;;;;;;;13.40;99.90;;;;;;5024433;28;19923;-77
2022/06/19 02:47:07;;;;;;;;;;;13.50;99.90;;;;;;5049007;28;19967;-77
2022/06/19 02:49:33;;;;;;;;;;;13.40;99.90;;;;;;5048463;28;19925;-77
2022/06/19 02:52:00;;;;;;;;;;;13.50;99.90;;;;;;5024943;28;19943;-77
2022/06/19 02:54:26;;;;;;;;;;;13.50;99.90;;;;;;5021810;28;19935;-77
2022/06/19 02:56:51;;;;;;;;;;;13.50;99.90;;;;;;5028250;28;20256;-77
2022/06/19 02:59:17;;;;;;;;;;;13.50;99.90;;;;;;5062591;28;19926;-77
2022/06/19 03:01:43;;;;;;;;;;;13.50;99.90;;;;;;5022788;28;19917;-77
2022/06/19 03:04:14;;;;;;;;;;;13.50;99.90;;;;;;5034479;28;19917;-77
2022/06/19 03:06:39;;;;;;;;;;;13.50;99.90;;;;;;5055332;28;20433;-78
2022/06/19 03:09:05;;;;;;;;;;;13.50;99.90;;;;;;5049032;28;19921;-78
2022/06/19 03:11:31;;;;;;;;;;;13.50;99.90;;;;;;5066625;28;19927;-77
2022/06/19 03:13:56;;;;;;;;;;;13.50;99.90;;;;;;5035591;28;20356;-77
2022/06/19 03:16:22;;;;;;;;;;;13.50;99.90;;;;;;5035796;28;20388;-77
2022/06/19 03:18:47;;;;;;;;;;;13.50;99.90;;;;;;5034460;28;20385;-77
2022/06/19 03:21:13;;;;;;;;;;;13.50;99.90;;;;;;5034162;28;19999;-77
2022/06/19 03:23:38;;;;;;;;;;;13.50;99.90;;;;;;5048910;28;19924;-77
2022/06/19 03:26:04;;;;;;;;;;;13.40;99.90;;;;;;5016067;28;19996;-77
2022/06/19 03:28:30;;;;;;;;;;;13.50;99.90;;;;;;5035322;28;20001;-77
2022/06/19 03:30:55;;;;;;;;;;;13.40;99.90;;;;;;5035211;28;19916;-77
2022/06/19 03:33:21;;;;;;;;;;;13.50;99.90;;;;;;5028473;28;19964;-77
2022/06/19 03:35:47;;;;;;;;;;;13.40;99.90;;;;;;5015131;28;19921;-78
2022/06/19 03:38:12;;;;;;;;;;;13.40;99.90;;;;;;5060930;28;19917;-77
2022/06/19 03:40:38;;;;;;;;;;;13.40;99.90;;;;;;5031446;28;19917;-77
2022/06/19 03:43:03;;;;;;;;;;;13.40;99.90;;;;;;5063084;28;20397;-78
2022/06/19 03:45:29;;;;;;;;;;;13.40;99.90;;;;;;5035418;28;19921;-78
2022/06/19 03:47:54;;;;;;;;;;;13.40;99.90;;;;;;5032741;28;20005;-78
2022/06/19 03:50:20;;;;;;;;;;;13.40;99.90;;;;;;5020516;28;19960;-79
2022/06/19 03:52:46;;;;;;;;;;;13.30;99.90;;;;;;5035020;28;19916;-81
2022/06/19 03:55:13;;;;;;;;;;;13.10;99.90;;;;;;5025364;28;19929;-81
2022/06/19 03:57:39;;;;;;;;;;;13.00;99.90;;;;;;5012848;28;20279;-79
2022/06/19 04:00:05;;;;;;;;;;;12.80;99.90;;;;;;5047148;28;19985;-80
2022/06/19 04:02:30;;;;;;;;;;;12.70;99.90;;;;;;5050743;28;19917;-81
2022/06/19 04:05:02;;;;;;;;;;;12.60;99.90;;;;;;5023386;28;19975;-80
2022/06/19 04:07:28;;;;;;;;;;;12.50;99.90;;;;;;5017967;28;19917;-79
2022/06/19 04:09:58;;;;;;;;;;;12.50;99.90;;;;;;4995187;28;20336;-80
2022/06/19 04:12:23;;;;;;;;;;;12.40;99.90;;;;;;5011800;28;19921;-81
2022/06/19 04:14:50;;;;;;;;;;;12.40;99.90;;;;;;5014899;28;19917;-81
2022/06/19 04:17:16;;;;;;;;;;;12.30;99.90;;;;;;5054554;28;19960;-82
2022/06/19 04:19:41;;;;;;;;;;;12.30;99.90;;;;;;4995108;28;20335;-81
2022/06/19 04:22:07;;;;;;;;;;;12.30;99.90;;;;;;5011406;28;19940;-81
2022/06/19 04:24:32;;;;;;;;;;;12.20;99.90;;;;;;5012172;28;20007;-81
2022/06/19 04:26:58;;;;;;;;;;;12.20;99.90;;;;;;5017901;28;19939;-80
2022/06/19 04:29:24;;;;;;;;;;;12.20;99.90;;;;;;5046579;28;19917;-81
2022/06/19 04:31:49;;;;;;;;;;;12.60;99.90;;;;;;5033085;28;19988;-82
2022/06/19 04:34:15;;;;;;;;;;;12.00;99.90;;;;;;5037143;28;19917;-82
2022/06/19 04:36:40;;;;;;;;;;;11.90;99.90;;;;;;4997448;28;19931;-81
2022/06/19 04:39:06;;;;;;;;;;;11.90;99.90;;;;;;5030291;28;19917;-81
2022/06/19 04:41:37;;;;;;;;;;;11.80;99.90;;;;;;5012958;28;20011;-80
2022/06/19 04:44:03;;;;;;;;;;;11.80;99.90;;;;;;5024010;28;19918;-80
2022/06/19 04:46:29;;;;;;;;;;;11.90;99.90;;;;;;5024983;28;20355;-81
2022/06/19 04:48:54;;;;;;;;;;;11.90;99.90;;;;;;5024611;28;19936;-81
2022/06/19 04:51:20;;;;;;;;;;;11.80;99.90;;;;;;4998129;28;20003;-81
2022/06/19 04:53:46;;;;;;;;;;;11.70;99.90;;;;;;5031826;28;19921;-81
2022/06/19 04:56:13;;;;;;;;;;;11.70;99.90;;;;;;5064754;28;19955;-80
2022/06/19 04:58:38;;;;;;;;;;;11.60;99.90;;;;;;5032424;28;19979;-80
2022/06/19 05:01:27;;;;;;;;;;;11.50;99.90;;;;;;5030541;28;19920;-80
2022/06/19 05:03:55;;;;;;;;;;;11.50;99.90;;;;;;4998570;28;19924;-80
2022/06/19 05:06:23;;;;;;;;;;;11.40;99.90;;;;;;5027902;28;19922;-81
2022/06/19 05:08:49;;;;;;;;;;;11.20;99.90;;;;;;5016591;28;19976;-81
2022/06/19 05:11:16;;;;;;;;;;;11.00;99.90;;;;;;5015276;28;19963;-79
2022/06/19 05:13:42;;;;;;;;;;;11.00;99.90;;;;;;5022867;28;20256;-80
2022/06/19 05:16:13;;;;;;;;;;;10.90;99.90;;;;;;5023637;28;19945;-81
2022/06/19 05:18:39;;;;;;;;;;;10.80;99.90;;;;;;5014309;28;19921;-80
2022/06/19 05:21:05;;;;;;;;;;;11.00;99.90;;;;;;5009433;28;19929;-80
2022/06/19 05:23:34;;;;;;;;;;;11.00;99.90;;;;;;5063641;28;19918;-80
2022/06/19 05:26:02;;;;;;;;;;;11.00;99.90;;;;;;5025567;28;20036;-80
2022/06/19 05:28:30;;;;;;;;;;;11.00;99.90;;;;;;5049780;28;19921;-81
2022/06/19 05:30:57;;;;;;;;;;;11.20;99.90;;;;;;5035436;28;19917;-81
2022/06/19 05:33:22;;;;;;;;;;;11.20;99.90;;;;;;5033295;28;19920;-81
2022/06/19 05:35:48;;;;;;;;;;;11.20;99.90;;;;;;5014722;28;19921;-81
2022/06/19 05:38:14;;;;;;;;;;;11.20;99.90;;;;;;4998021;28;19925;-81
2022/06/19 05:40:40;;;;;;;;;;;11.30;99.90;;;;;;4998582;28;19924;-81
2022/06/19 05:43:05;;;;;;;;;;;11.30;99.90;;;;;;4998099;28;19925;-81
2022/06/19 05:45:34;;;;;;;;;;;11.30;99.90;;;;;;5005343;28;19917;-81
2022/06/19 05:48:00;;;;;;;;;;;11.40;99.90;;;;;;5006637;28;19917;-79
2022/06/19 05:50:25;;;;;;;;;;;11.40;99.90;;;;;;5032927;28;19924;-80
2022/06/19 05:52:51;;;;;;;;;;;11.50;99.90;;;;;;5028188;28;19925;-81
2022/06/19 05:55:17;;;;;;;;;;;11.40;99.90;;;;;;5015482;28;20367;-81
2022/06/19 05:57:43;;;;;;;;;;;11.50;99.90;;;;;;5014951;28;19921;-81
2022/06/19 06:00:10;;;;;;;;;;;11.50;99.90;;;;;;4997802;28;19925;-81
2022/06/19 06:02:36;;;;;;;;;;;11.50;99.90;;;;;;4998295;28;19971;-80
2022/06/19 06:05:02;;;;;;;;;;;11.50;99.90;;;;;;4997295;28;20397;-80
2022/06/19 06:07:28;;;;;;;;;;;11.60;99.90;;;;;;5014586;28;20271;-80
2022/06/19 06:09:53;;;;;;;;;;;11.60;99.90;;;;;;5015933;28;19917;-80
2022/06/19 06:12:19;;;;;;;;;;;11.60;99.90;;;;;;5014043;28;20397;-80
2022/06/19 06:14:44;;;;;;;;;;;11.50;99.90;;;;;;5001164;28;19920;-80
2022/06/19 06:17:10;;;;;;;;;;;11.60;99.90;;;;;;5032766;28;19928;-80
2022/06/19 06:19:36;;;;;;;;;;;11.60;99.90;;;;;;5019621;28;19925;-81
2022/06/19 06:22:05;;;;;;;;;;;11.70;99.90;;;;;;5026016;28;20003;-80
2022/06/19 06:24:31;;;;;;;;;;;11.70;99.90;;;;;;5013791;28;20008;-80
2022/06/19 06:26:58;;;;;;;;;;;11.70;99.90;;;;;;5014379;28;19918;-80
2022/06/19 06:29:24;;;;;;;;;;;11.80;99.90;;;;;;5014615;28;19969;-81
2022/06/19 06:31:49;;;;;;;;;;;11.90;99.90;;;;;;5032719;28;20008;-80
2022/06/19 06:34:15;;;;;;;;;;;12.10;99.90;;;;;;5049502;28;20339;-82
2022/06/19 06:36:40;;;;;;;;;;;12.10;99.90;;;;;;5032015;28;19987;-81
2022/06/19 06:39:06;;;;;;;;;;;12.20;99.90;;;;;;5023878;28;20374;-81
2022/06/19 06:41:31;;;;;;;;;;;12.30;99.90;;;;;;5002138;28;20337;-81
2022/06/19 06:43:57;;;;;;;;;;;12.40;99.90;;;;;;5023799;28;19924;-81
2022/06/19 06:46:24;;;;;;;;;;;12.40;99.90;;;;;;5043395;28;19925;-82
2022/06/19 06:49:05;;;;;;;;;;;12.50;99.90;;;;;;5014574;28;19917;-81
2022/06/19 06:51:31;;;;;;;;;;;12.50;99.90;;;;;;5002046;28;19916;-82
2022/06/19 06:53:58;;;;;;;;;;;12.60;99.90;;;;;;5022273;28;19932;-81
2022/06/19 06:56:24;;;;;;;;;;;12.80;99.90;;;;;;5029166;28;19925;-81
2022/06/19 06:58:49;;;;;;;;;;;12.90;99.90;;;;;;5024292;28;19976;-80
2022/06/19 07:01:18;;;;;;;;;;;13.10;99.90;;;;;;5013774;28;20334;-81
2022/06/19 07:03:44;;;;;;;;;;;13.10;99.90;;;;;;5014480;28;19943;-81
2022/06/19 07:06:10;;;;;;;;;;;13.30;99.90;;;;;;5026469;28;20014;-81
2022/06/19 07:08:36;;;;;;;;;;;13.30;99.90;;;;;;5013277;28;19917;-80
2022/06/19 07:11:02;;;;;;;;;;;13.30;99.90;;;;;;5013291;28;19940;-80
2022/06/19 07:13:31;;;;;;;;;;;13.30;99.90;;;;;;5019440;28;19917;-79
2022/06/19 07:15:57;;;;;;;;;;;13.20;99.90;;;;;;5022195;28;20283;-82
2022/06/19 07:18:22;;;;;;;;;;;13.10;99.90;;;;;;5047616;28;20633;-80
2022/06/19 07:20:48;;;;;;;;;;;13.10;99.90;;;;;;5039250;28;19929;-81
2022/06/19 07:23:13;;;;;;;;;;;13.10;99.90;;;;;;4998774;28;20267;-81
2022/06/19 07:25:39;;;;;;;;;;;13.20;99.90;;;;;;5023148;28;19924;-80
2022/06/19 07:28:05;;;;;;;;;;;13.30;99.90;;;;;;5025563;28;19921;-80
2022/06/19 07:30:32;;;;;;;;;;;13.40;99.90;;;;;;5012547;28;19924;-80
2022/06/19 07:32:58;;;;;;;;;;;13.50;99.90;;;;;;4996412;28;19917;-80
2022/06/19 07:35:24;;;;;;;;;;;13.60;99.90;;;;;;5019821;28;19921;-80
2022/06/19 07:37:51;;;;;;;;;;;13.60;99.90;;;;;;5032638;28;19917;-80
2022/06/19 07:40:18;;;;;;;;;;;13.60;99.90;;;;;;5043990;28;19917;-81
2022/06/19 07:42:44;;;;;;;;;;;13.70;99.90;;;;;;5024013;28;19917;-81
2022/06/19 07:45:10;;;;;;;;;;;13.70;99.90;;;;;;5015240;28;19917;-81
2022/06/19 07:50:26;;;;;;;;;;;13.70;99.90;;;;;;5011427;28;19917;-81
2022/06/19 07:53:00;;;;;;;;;;;13.80;99.90;;;;;;5137064;27;19912;-80
2022/06/19 07:55:28;;;;;;;;;;;13.80;99.90;;;;;;5122733;28;19920;-81
2022/06/19 07:57:54;;;;;;;;;;;13.70;99.90;;;;;;5146041;27;19919;-79
2022/06/19 08:00:30;;;;;;;;;;;13.70;99.90;;;;;;5150056;27;20268;-80
2022/06/19 08:02:56;;;;;;;;;;;13.70;99.90;;;;;;5146411;27;19967;-80
2022/06/19 08:05:24;;;;;;;;;;;13.70;99.90;;;;;;5130080;27;19919;-81
2022/06/19 08:07:50;;;;;;;;;;;13.70;99.90;;;;;;5132413;27;19920;-80
2022/06/19 08:10:20;;;;;;;;;;;13.60;99.90;;;;;;5132080;27;20368;-82
2022/06/19 08:12:46;;;;;;;;;;;13.60;99.90;;;;;;5153320;27;19928;-81
2022/06/19 08:15:12;;;;;;;;;;;13.60;99.90;;;;;;5158759;27;19927;-81
2022/06/19 08:17:38;;;;;;;;;;;13.50;99.90;;;;;;5130310;27;19951;-81
2022/06/19 08:20:04;;;;;;;;;;;13.50;99.90;;;;;;5146603;27;19967;-82
2022/06/19 08:22:30;;;;;;;;;;;13.60;99.90;;;;;;5125695;27;20402;-81
2022/06/19 08:24:56;;;;;;;;;;;13.60;99.90;;;;;;5128550;28;19927;-80
2022/06/19 08:27:22;;;;;;;;;;;13.60;99.90;;;;;;5123969;27;19919;-81
2022/06/19 08:29:47;;;;;;;;;;;13.80;99.90;;;;;;5094339;28;19920;-81
2022/06/19 08:32:13;;;;;;;;;;;13.90;99.90;;;;;;5146465;27;19919;-81
2022/06/19 08:34:39;;;;;;;;;;;13.90;99.90;;;;;;5127998;28;19959;-80
2022/06/19 08:37:05;;;;;;;;;;;13.90;99.90;;;;;;5121542;27;20021;-81
2022/06/19 08:39:31;;;;;;;;;;;14.00;99.90;;;;;;5133374;27;19936;-81
2022/06/19 08:42:03;;;;;;;;;;;14.00;99.90;;;;;;5119692;27;19926;-80
2022/06/19 08:44:44;;;;;;;;;;;14.00;99.90;;;;;;5127073;27;19927;-81
2022/06/19 08:47:12;;;;;;;;;;;14.10;99.90;;;;;;5128531;28;19919;-81
2022/06/19 08:49:44;;;;;;;;;;;14.20;99.90;;;;;;5128552;27;19927;-81
2022/06/19 08:52:09;;;;;;;;;;;14.20;99.90;;;;;;5138649;27;19923;-81
2022/06/19 08:54:54;;;;;;;;;;;14.30;99.90;;;;;;5134415;27;19953;-81
2022/06/19 08:57:26;;;;;;;;;;;14.40;99.90;;;;;;5148857;27;19972;-81
2022/06/19 08:59:54;;;;;;;;;;;14.40;99.90;;;;;;5129997;27;19931;-81
2022/06/19 09:02:38;;;;;;;;;;;14.50;99.90;;;;;;5126331;28;19935;-80
2022/06/19 09:05:36;;;;;;;;;;;14.40;99.90;;;;;;5114313;28;19919;-81
2022/06/19 09:08:20;;;;;;;;;;;14.50;99.90;;;;;;5114422;27;19923;-80
2022/06/19 09:10:56;;;;;;;;;;;14.50;99.90;;;;;;5098706;28;20356;-82
2022/06/19 09:13:42;;;;;;;;;;;14.60;99.90;;;;;;5128998;27;19920;-81
2022/06/19 09:16:40;;;;;;;;;;;14.60;99.90;;;;;;5114734;28;19959;-80
2022/06/19 09:19:06;;;;;;;;;;;14.50;99.90;;;;;;5085654;27;20295;-81
2022/06/19 09:21:38;;;;;;;;;;;14.60;99.90;;;;;;5133229;27;19935;-81
2022/06/19 09:24:27;;;;;;;;;;;14.60;99.90;;;;;;5115418;27;19967;-82
2022/06/19 09:26:55;;;;;;;;;;;14.70;99.90;;;;;;5119534;27;19919;-81
2022/06/19 09:29:28;;;;;;;;;;;14.80;99.90;;;;;;5134370;27;19966;-83
2022/06/19 09:31:57;;;;;;;;;;;14.90;99.90;;;;;;5117896;27;19927;-79
2022/06/19 09:34:22;;;;;;;;;;;15.00;99.90;;;;;;5115165;28;19926;-81
2022/06/19 09:36:53;;;;;;;;;;;15.20;99.90;;;;;;5131928;27;19943;-82
2022/06/19 09:39:46;;;;;;;;;;;15.30;99.90;;;;;;5124733;27;20329;-80
2022/06/19 09:42:31;;;;;;;;;;;15.20;99.90;;;;;;5128296;27;19923;-82
2022/06/19 09:44:56;;;;;;;;;;;15.20;99.90;;;;;;5113898;28;19926;-81
2022/06/19 09:47:34;;;;;;;;;;;15.10;99.90;;;;;;5127712;27;19998;-80
2022/06/19 09:49:59;;;;;;;;;;;15.00;99.90;;;;;;5109007;28;19919;-80
2022/06/19 09:52:27;;;;;;;;;;;15.10;99.90;;;;;;5126243;27;19934;-81
2022/06/19 09:55:07;;;;;;;;;;;15.30;99.90;;;;;;5118627;27;20332;-81
2022/06/19 09:57:36;;;;;;;;;;;15.50;99.90;;;;;;5121196;27;19924;-82
2022/06/19 10:00:25;;;;;;;;;;;15.70;99.90;;;;;;5120329;27;19963;-82
2022/06/19 10:02:54;;;;;;;;;;;15.70;99.90;;;;;;5117356;27;19924;-81
2022/06/19 10:05:39;;;;;;;;;;;15.90;99.90;;;;;;5105586;28;20326;-80
2022/06/19 10:08:23;;;;;;;;;;;16.00;99.90;;;;;;5120052;27;20349;-82
2022/06/19 10:11:10;;;;;;;;;;;16.00;99.90;;;;;;5103566;28;19924;-81
2022/06/19 10:13:39;;;;;;;;;;;16.10;99.90;;;;;;5122017;27;19977;-79
2022/06/19 10:16:15;;;;;;;;;;;16.20;99.90;;;;;;5126717;27;19924;-82
2022/06/19 10:18:43;;;;;;;;;;;16.20;99.90;;;;;;5126325;27;19965;-80
2022/06/19 10:21:11;;;;;;;;;;;16.30;99.90;;;;;;5097619;28;20006;-82
2022/06/19 10:23:50;;;;;;;;;;;16.40;99.90;;;;;;5113028;28;20426;-82
2022/06/19 10:26:34;;;;;;;;;;;16.40;99.90;;;;;;5125826;27;19931;-83
2022/06/19 10:29:05;;;;;;;;;;;16.40;99.90;;;;;;5104203;27;19926;-82
2022/06/19 10:31:46;;;;;;;;;;;16.50;99.90;;;;;;5119900;27;19946;-81
2022/06/19 10:34:22;;;;;;;;;;;16.70;99.90;;;;;;5097244;28;19963;-82
2022/06/19 10:36:53;;;;;;;;;;;16.80;99.90;;;;;;5099041;27;20383;-80
2022/06/19 10:39:31;;;;;;;;;;;17.00;99.90;;;;;;5128398;27;19920;-81
2022/06/19 10:42:06;;;;;;;;;;;17.30;99.90;;;;;;5112091;27;19923;-82
2022/06/19 10:44:31;;;;;;;;;;;17.40;99.90;;;;;;5104322;28;19954;-82
2022/06/19 10:47:12;;;;;;;;;;;17.30;99.90;;;;;;5110978;27;19920;-83
2022/06/19 10:49:38;;;;;;;;;;;17.30;99.90;;;;;;5113023;28;20346;-80
2022/06/19 10:52:28;;;;;;;;;;;17.10;99.90;;;;;;5104065;28;19930;-80
2022/06/19 10:55:02;;;;;;;;;;;16.90;99.90;;;;;;5089338;27;19924;-81
2022/06/19 10:57:34;;;;;;;;;;;16.90;99.90;;;;;;5115619;28;19920;-81
2022/06/19 11:00:00;;;;;;;;;;;17.00;99.90;;;;;;5115928;28;20318;-81
2022/06/19 11:05:16;;;;;;;;;;;17.00;99.90;;;;;;5111326;27;19920;-82
2022/06/19 11:07:42;;;;;;;;;;;16.80;99.90;;;;;;5133820;27;19923;-83
2022/06/19 11:10:16;;;;;;;;;;;16.80;99.90;;;;;;5110765;28;19920;-81
2022/06/19 11:12:58;;;;;;;;;;;16.70;99.90;;;;;;5099174;27;19946;-81
2022/06/19 11:15:34;;;;;;;;;;;16.60;99.90;;;;;;5126590;27;20489;-81
2022/06/19 11:18:06;;;;;;;;;;;16.50;99.90;;;;;;5097870;28;19999;-81
2022/06/19 11:20:32;;;;;;;;;;;16.40;99.90;;;;;;5114313;27;19928;-79
2022/06/19 11:23:01;;;;;;;;;;;16.20;99.90;;;;;;5097177;28;20008;-81
2022/06/19 11:25:30;;;;;;;;;;;16.00;99.90;;;;;;5114626;27;19920;-81
2022/06/19 11:27:59;;;;;;;;;;;15.90;99.90;;;;;;5114877;28;19924;-81
2022/06/19 11:30:36;;;;;;;;;;;15.80;99.90;;;;;;5117125;28;19919;-82
2022/06/19 11:33:04;;;;;;;;;;;15.70;99.90;;;;;;5098485;27;19927;-81
2022/06/19 11:35:48;;;;;;;;;;;15.50;99.90;;;;;;5115199;27;19998;-80
2022/06/19 11:38:15;;;;;;;;;;;15.40;99.90;;;;;;5126281;27;19920;-81
2022/06/19 11:40:42;;;;;;;;;;;15.30;99.90;;;;;;5111262;28;19919;-81
2022/06/19 11:43:22;;;;;;;;;;;15.30;99.90;;;;;;5129138;27;19919;-82
2022/06/19 11:45:57;;;;;;;;;;;15.10;99.90;;;;;;5108648;28;19930;-81
2022/06/19 11:48:24;;;;;;;;;;;15.00;99.90;;;;;;5092937;28;19919;-80
2022/06/19 11:50:51;;;;;;;;;;;15.00;99.90;;;;;;5111459;28;19920;-80
2022/06/19 11:53:21;;;;;;;;;;;15.00;99.90;;;;;;5129907;28;19926;-82
2022/06/19 11:56:07;;;;;;;;;;;15.00;99.90;;;;;;5102938;28;20324;-81
2022/06/19 11:58:38;;;;;;;;;;;15.10;99.90;;;;;;5100975;28;20284;-82
2022/06/19 12:01:06;;;;;;;;;;;15.10;99.90;;;;;;5109166;28;20291;-81
2022/06/19 12:03:44;;;;;;;;;;;15.20;99.90;;;;;;5124273;28;19966;-81
2022/06/19 12:06:11;;;;;;;;;;;15.20;99.90;;;;;;5107785;28;19983;-81
2022/06/19 12:08:50;;;;;;;;;;;15.30;99.90;;;;;;5101624;28;19919;-79
2022/06/19 12:11:33;;;;;;;;;;;15.30;99.90;;;;;;5100967;28;19920;-81
2022/06/19 12:13:58;;;;;;;;;;;15.30;99.90;;;;;;5120716;28;19920;-81
2022/06/19 12:16:24;;;;;;;;;;;15.30;99.90;;;;;;5104171;28;19924;-81
2022/06/19 12:18:50;;;;;;;;;;;15.30;99.90;;;;;;5110684;28;19920;-80
2022/06/19 12:21:24;;;;;;;;;;;15.20;99.90;;;;;;5115515;28;20297;-81
2022/06/19 12:24:11;;;;;;;;;;;15.30;99.90;;;;;;5111316;28;19963;-80
2022/06/19 12:26:39;;;;;;;;;;;15.50;99.90;;;;;;5096972;28;19927;-80
2022/06/19 12:29:15;;;;;;;;;;;15.80;99.90;;;;;;5104014;28;19930;-80
2022/06/19 12:31:42;;;;;;;;;;;16.00;99.90;;;;;;5098574;28;19920;-82
2022/06/19 12:34:29;;;;;;;;;;;16.30;99.90;;;;;;5120371;28;19961;-82
2022/06/19 12:36:57;;;;;;;;;;;16.70;99.90;;;;;;5130888;27;19926;-81
2022/06/19 12:39:24;;;;;;;;;;;17.10;99.90;;;;;;5123288;27;19919;-82
2022/06/19 12:42:00;;;;;;;;;;;17.30;99.90;;;;;;5128560;27;19924;-83
2022/06/19 12:44:55;;;;;;;;;;;17.40;99.90;;;;;;5107215;28;19920;-81
2022/06/19 12:47:50;;;;;;;;;;;17.60;99.90;;;;;;5106748;27;20006;-81
2022/06/19 12:50:35;;;;;;;;;;;17.80;99.90;;;;;;5074242;28;20395;-82
2022/06/19 12:53:16;;;;;;;;;;;18.20;99.90;;;;;;5119122;27;20010;-81
2022/06/19 12:56:00;;;;;;;;;;;18.30;99.90;;;;;;5134889;27;19929;-81
2022/06/19 12:58:28;;;;;;;;;;;18.50;99.90;;;;;;5086088;28;20007;-82
2022/06/19 13:01:17;;;;;;;;;;;18.50;99.90;;;;;;5128054;27;19919;-80
2022/06/19 13:03:42;;;;;;;;;;;18.50;99.90;;;;;;5134275;27;20400;-81
2022/06/19 13:06:29;;;;;;;;;;;18.50;99.90;;;;;;5120408;27;19959;-83
2022/06/19 13:08:57;;;;;;;;;;;18.50;99.90;;;;;;5123218;27;19924;-80
2022/06/19 13:11:39;;;;;;;;;;;18.70;99.90;;;;;;5114959;27;19939;-82
2022/06/19 13:14:07;;;;;;;;;;;18.80;99.90;;;;;;5126709;27;20299;-83
2022/06/19 13:16:37;;;;;;;;;;;18.60;99.90;;;;;;5115288;27;19919;-81
2022/06/19 13:19:09;;;;;;;;;;;18.60;99.90;;;;;;5107808;27;19926;-82
2022/06/19 13:21:37;;;;;;;;;;;18.60;99.90;;;;;;5119657;27;19924;-81
2022/06/19 13:24:15;;;;;;;;;;;18.50;99.90;;;;;;5124288;27;19919;-81
2022/06/19 13:29:39;;;;;;;;;;;18.50;99.90;;;;;;5119478;27;20010;-82
2022/06/19 13:32:31;;;;;;;;;;;18.50;99.90;;;;;;5101173;28;20359;-79
2022/06/19 13:35:02;;;;;;;;;;;18.50;99.90;;;;;;5123369;27;20482;-82
2022/06/19 13:37:47;;;;;;;;;;;18.50;99.90;;;;;;5105930;28;19968;-80
2022/06/19 13:40:12;;;;;;;;;;;18.50;99.90;;;;;;5102461;27;19926;-81
2022/06/19 13:42:53;;;;;;;;;;;18.50;99.90;;;;;;5120165;27;20011;-81
2022/06/19 13:45:37;;;;;;;;;;;18.50;99.90;;;;;;5119379;27;19987;-82
2022/06/19 13:48:15;;;;;;;;;;;18.80;99.90;;;;;;5128815;27;19923;-83
2022/06/19 13:51:10;;;;;;;;;;;19.20;99.90;;;;;;5113016;28;20516;-80
2022/06/19 13:53:39;;;;;;;;;;;19.20;99.90;;;;;;5105275;28;19927;-80
2022/06/19 13:56:17;;;;;;;;;;;19.20;99.90;;;;;;5113708;28;19977;-82
2022/06/19 13:59:01;;;;;;;;;;;19.00;99.90;;;;;;5112765;28;19969;-82
2022/06/19 14:01:32;;;;;;;;;;;18.80;99.90;;;;;;5130203;27;20417;-82
2022/06/19 14:07:16;;;;;;;;;;;19.00;99.90;;;;;;5101217;27;19931;-82
2022/06/19 14:09:57;;;;;;;;;;;19.40;99.90;;;;;;5113166;28;19924;-82
2022/06/19 14:12:26;;;;;;;;;;;20.10;99.90;;;;;;5123025;27;19919;-82
2022/06/19 14:14:56;;;;;;;;;;;20.20;99.90;;;;;;5116901;27;20011;-81
2022/06/19 14:17:27;;;;;;;;;;;19.80;99.90;;;;;;5113009;28;19924;-82
2022/06/19 14:20:12;;;;;;;;;;;19.40;99.90;;;;;;5114238;27;19971;-82
2022/06/19 14:22:48;;;;;;;;;;;19.20;99.90;;;;;;5121134;27;19923;-81
2022/06/19 14:25:23;;;;;;;;;;;19.20;99.90;;;;;;5113785;27;19919;-82
2022/06/19 14:28:08;;;;;;;;;;;19.30;99.90;;;;;;5113379;28;20357;-81
2022/06/19 14:30:38;;;;;;;;;;;19.20;99.90;;;;;;5120009;27;20010;-80
2022/06/19 14:33:05;;;;;;;;;;;19.30;99.90;;;;;;5133011;27;20342;-81
2022/06/19 14:35:35;;;;;;;;;;;19.40;99.90;;;;;;5076447;28;19920;-81
2022/06/19 14:38:00;;;;;;;;;;;19.50;99.90;;;;;;5088393;28;20371;-82
2022/06/19 14:40:26;;;;;;;;;;;19.50;99.90;;;;;;5116721;27;20031;-82
2022/06/19 14:42:54;;;;;;;;;;;19.50;99.90;;;;;;5132359;27;19935;-80
2022/06/19 14:45:22;;;;;;;;;;;19.60;99.90;;;;;;5115076;27;19926;-82
2022/06/19 14:48:04;;;;;;;;;;;19.70;99.90;;;;;;5102902;27;19924;-82